Terminal Aerodrome Forecast
Issued by NWS Buffalo, NY

Home | Current Version | Previous Version | Text Only | Print | Product List | Glossary On
Versions: 1 2 3 4 5 6 7 8 9 10 11 12 13 14 15 16 17 18 19 20 21 22 23 24 25 26 27 28 29
201
FTUS41 KBUF 252131 AAB
TAFBUF
TAF AMD
KBUF 252131Z 2522/2618 24009KT 6SM -RA OVC004
     FM260000 27012KT 6SM BR VCSH OVC007
     FM261000 26013KT 6SM BR BKN007
     FM261300 26012KT P6SM SCT012=

USA.gov is the U.S. government's official web portal to all federal, state and local government web resources and services.